Ernest Shackleton — ZDLS1 — position and weather

sailwx.info

Track history (hours):
 
Tides and Currents Weather Stations Pressure Air Temp Water Temp Dewpoint Dewpoint Depression Visibility Wind Speed Wind Dir Waves Ship Positions

Oceanographic research ship Ernest Shackleton (UK/Norway)

Detailed information on ship capabilities available from University of Delaware's Ocean Information Center and ARCUS's ALIAS (Arctic Logistics Information and Support) project.

Last reported at 2016-Feb-14 19:00 UTC. Time now 2016-Feb-14 21:02 UTC.
Position S 51°42' W 057°48'.

Length 80 m; beam 17 m; draft 7.4 m.

Type: Ship. MMSI: 740357000.

AWS

Barometer 991.2 mb
Air temperature 7.4 ° C
Dewpoint 1.4 ° C

Date/timePositionNaut miles runAvg speedWind from/ knotsBaromVisibWave heightAir tempDewpointWater temp
2016-Feb-14 19:00S 51°42' W 057°48'0 0.0 991.2 7.4 1.4
2016-Feb-14 18:00S 51°42' W 057°48'0 0.0 990.1 7.5 1.4
2016-Feb-14 16:00S 51°42' W 057°48'0 0.0 988.1 7.9 2.6
2016-Feb-14 15:00S 51°42' W 057°48'0 0.0 987.4 8.2 2.9
2016-Feb-14 14:00S 51°42' W 057°48'0 0.0 986.6 8.3 1.3
2016-Feb-14 13:00S 51°42' W 057°48'0 0.0 986.0 7.4 1.3
2016-Feb-14 12:00S 51°42' W 057°48'0 0.0 985.5 6.8 3.5
2016-Feb-14 10:00S 51°42' W 057°48'0 0.0 984.7 5.4 1.3
2016-Feb-14 09:00S 51°42' W 057°48'0 0.0 984.2 5.5 1.9
2016-Feb-14 06:00S 51°42' W 057°48'0 0.0 983.6 5.8 1.5
2016-Feb-14 05:00S 51°42' W 057°48'0 0.0 984.0 6.2 2.8
2016-Feb-14 03:00S 51°42' W 057°48'0 0.0 983.6 6.3 2.9
2016-Feb-14 01:00S 51°42' W 057°48'0 0.0 982.4 6.5 3.4
2016-Feb-14 00:00S 51°42' W 057°48'7 3.5 982.3 7.2 3.6
2016-Feb-13 22:00S 51°36' W 057°54'0 0.0 982.0 8.2 4.3
2016-Feb-13 21:00S 51°36' W 057°54'0 0.0 982.2 6.5 3.4
2016-Feb-13 19:00S 51°36' W 057°54'0 0.0 982.4 6.8 3.4
2016-Feb-13 18:00S 51°36' W 057°54'0 0.0 982.4 6.3 3.3
2016-Feb-13 17:00S 51°36' W 057°54'0 0.0 981.9 6.0 3.0
2016-Feb-13 16:00S 51°36' W 057°54'0 0.0 981.9 5.4 2.8
2016-Feb-13 15:00S 51°36' W 057°54'0 0.0 981.6 4.7 2.5
2016-Feb-13 14:00S 51°36' W 057°54'0 0.0 981.6 3.7 1.9
2016-Feb-13 13:00S 51°36' W 057°54'0 0.0 982.0 3.7 1.9
2016-Feb-13 12:00S 51°36' W 057°54'4 3.7 982.5 4.1 2.3
2016-Feb-13 11:00S 51°36' W 057°48'10 9.6 983.1 5.4 3.7
2016-Feb-13 10:00S 51°42' W 057°36'7 7.1 983.7 5.4 4.0
2016-Feb-13 09:00S 51°48' W 057°30'14 7.1 985.7 5.2 3.3
2016-Feb-13 07:00S 52°00' W 057°18'7 7.4 989.8 7.7 6.3
2016-Feb-13 06:00S 52°00' W 057°06'23 7.8 991.9 7.4 4.2
2016-Feb-13 03:00S 52°18' W 056°42'7 7.0 050 / 7994.310.8 1.0 7.8 5.7 7.1
2016-Feb-13 02:00S 52°24' W 056°36'13 6.3 994.9 7.9 5.9
2016-Feb-13 00:00S 52°30' W 056°18'16 8.1 995.3 7.4 6.2
2016-Feb-12 22:00S 52°42' W 056°00'9 9.4 995.9 7.4 5.2
2016-Feb-12 21:00S 52°48' W 055°48'4013.4 995.7 7.6 4.5
2016-Feb-12 18:00S 53°24' W 055°18'13212.0 994.7 6.4 3.5
2016-Feb-12 07:00S 55°18' W 053°24'9 9.1 981.7 4.4 2.4
2016-Feb-12 06:00S 55°24' W 053°12'1413.8 981.7 4.0 2.4
2016-Feb-12 05:00S 55°36' W 053°00'9 9.0 981.7 3.9 2.3
2016-Feb-12 04:00S 55°42' W 052°48'2120.6 981.7 3.7 2.5
2016-Feb-12 03:00S 56°00' W 052°30'22 7.5 270 / 14981.5 5.4 1.5 3.8 3.8 4.0
2016-Feb-12 00:00S 56°18' W 052°06'1413.7 982.4 3.0 2.4
2016-Feb-11 23:00S 56°30' W 051°54'2713.7 982.7 3.1 2.6
2016-Feb-11 21:00S 56°54' W 051°30'2010.2 982.4 3.2 2.6
2016-Feb-11 19:00S 57°12' W 051°12'1413.6 982.8 2.0 1.0
2016-Feb-11 18:00S 57°24' W 051°00'3913.1 984.0 2.0-0.4
2016-Feb-11 15:00S 58°00' W 050°30'3110.2 985.9 1.0-3.2
2016-Feb-11 12:00S 58°24' W 049°54'3 3.1 984.8 0.3-3.6
2016-Feb-11 11:00S 58°24' W 049°48'65 6.5 984.2 -0.1-3.3
2016-Feb-11 01:00S 59°12' W 048°24'4711.8 973.3 -0.2-1.6
2016-Feb-10 21:00S 59°48' W 047°24'35 8.7 970.4 -0.2-1.3
2016-Feb-10 17:00S 60°18' W 046°48'4314.3 969.8 -0.8-0.5
2016-Feb-10 14:00S 60°54' W 046°00'13113.1 968.8 -0.3-0.3
2016-Feb-10 04:00S 62°36' W 043°06'1514.6 970.5 -0.9 0.4
2016-Feb-10 03:00S 62°48' W 042°48'1010.2 971.8 -0.9 0.4
2016-Feb-10 02:00S 62°54' W 042°30'6913.8 973.4 -1.1 0.6
2016-Feb-09 21:00S 63°48' W 040°54'18 8.9 978.3 -1.0 0.3
2016-Feb-09 19:00S 64°00' W 040°24'1414.3 978.5 -0.8 0.2
2016-Feb-09 18:00S 64°12' W 040°06'10 9.9 978.6 -0.7 0.1
2016-Feb-09 17:00S 64°18' W 039°48'5112.7 978.5 -0.7 0.1
2016-Feb-09 13:00S 65°00' W 038°42'10 9.7 977.2 -0.7 0.1
2016-Feb-09 12:00S 65°06' W 038°24'2311.7 977.0 -0.6-0.0
2016-Feb-09 10:00S 65°24' W 037°48'1414.1 976.1 -0.8 0.2
2016-Feb-09 09:00S 65°36' W 037°30'10 9.5 975.8 -0.8 0.2
2016-Feb-09 08:00S 65°42' W 037°12'1414.1 975.8 -0.8 0.2
2016-Feb-09 07:00S 65°54' W 036°54'1111.5 976.0 -0.7 0.1
2016-Feb-09 06:00S 66°00' W 036°30'1414.0 976.7 -0.8 0.2
2016-Feb-09 05:00S 66°12' W 036°12'2311.5 978.0 -0.8 0.2
2016-Feb-09 03:00S 66°30' W 035°36'2512.3 980.5 -1.2 0.6
2016-Feb-09 01:00S 66°48' W 034°54'9 9.3 981.9 -1.9 1.2
2016-Feb-09 00:00S 66°54' W 034°36'1413.9 982.4 -1.9 1.1
2016-Feb-08 23:00S 67°06' W 034°18'1111.1 982.7 -1.6 0.6
2016-Feb-08 22:00S 67°12' W 033°54'1413.9 982.9 -1.6 0.8
2016-Feb-08 21:00S 67°24' W 033°36'5711.4 983.2 -1.6 0.9
2016-Feb-08 16:00S 68°06' W 031°54'1413.7 986.1 -2.1 0.3
2016-Feb-08 15:00S 68°18' W 031°36'1514.9 986.9 -2.4 0.2
2016-Feb-08 14:00S 68°30' W 031°12'2411.8 987.8 -2.5 0.3
2016-Feb-08 12:00S 68°48' W 030°30'2311.7 989.5 -2.6-2.3
2016-Feb-08 10:00S 69°06' W 029°48'1010.4 990.1 -2.8-2.0
2016-Feb-08 09:00S 69°12' W 029°24'2914.7 990.1 -2.9-1.1
2016-Feb-08 07:00S 69°36' W 028°36'1010.3 990.4 -2.8-1.0
2016-Feb-08 06:00S 69°42' W 028°12'3812.5 990.4 -3.2-1.1
2016-Feb-08 03:00S 70°12' W 027°06'1414.5 989.6 -4.4 0.6
2016-Feb-08 02:00S 70°24' W 026°42'1211.7 989.4 -4.8 1.9
2016-Feb-08 01:00S 70°30' W 026°12'1414.4 988.9 -5.0 2.4
2016-Feb-08 00:00S 70°42' W 025°48'2412.0 988.6 -4.8 2.3
2016-Feb-07 22:00S 71°00' W 025°00'1312.6 987.5 -3.2 0.3
2016-Feb-07 21:00S 71°12' W 025°12'10 9.8 987.5 -3.3 0.6
2016-Feb-07 20:00S 71°18' W 025°36'1312.6 987.5 -2.9-0.3
2016-Feb-07 19:00S 71°30' W 025°48'27 8.8 987.3 -3.1 0.4
2016-Feb-07 16:00S 71°54' W 026°24'6 6.0 986.9 -2.9-0.1
2016-Feb-07 15:00S 72°00' W 026°24'2 0.9 986.9 -2.2-1.3
2016-Feb-07 13:00S 72°00' W 026°30'6 6.3 986.9 -2.3-1.1
2016-Feb-07 12:00S 72°06' W 026°36'7 7.0 986.9 -2.6-0.9
2016-Feb-07 11:00S 72°12' W 026°48'12 6.1 987.0 -3.3-0.0
2016-Feb-07 09:00S 72°24' W 026°54'2412.0 986.7 -2.7-0.3
2016-Feb-07 07:00S 72°48' W 026°48'2 1.8 986.1 -2.8-1.0
2016-Feb-07 06:00S 72°48' W 026°42'18 9.0 985.9 -2.9-0.7
2016-Feb-07 04:00S 73°06' W 026°36'1212.0 985.9 -3.2-0.8
2016-Feb-07 03:00S 73°18' W 026°36'3010.0 986.1 -3.4-0.6
2016-Feb-07 00:00S 73°48' W 026°30'1212.5 986.3 -3.9 0.5
2016-Feb-06 23:00S 74°00' W 026°42'8 7.8 986.3 -3.8 0.3
2016-Feb-06 22:00S 74°06' W 027°00'8 7.8 986.2 -3.9 0.9
2016-Feb-06 21:00S 74°12' W 026°42'2010.2 986.3 -3.2-0.1
2016-Feb-06 19:00S 74°30' W 026°06'6 6.2 985.8 -4.4 1.3
2016-Feb-06 18:00S 74°36' W 026°00'1212.0 985.6 -4.5 2.1
2016-Feb-06 17:00S 74°48' W 026°00'1212.1 985.6 -4.2 2.0
2016-Feb-06 16:00S 75°00' W 025°54'6 6.2 985.7 -4.9 2.6
2016-Feb-06 15:00S 75°06' W 025°48'6 3.0 985.8 -5.0 2.9
2016-Feb-06 13:00S 75°12' W 025°48'0 0.0 985.6 -6.6 4.8
2016-Feb-06 12:00S 75°12' W 025°48'0 0.0 985.3 -6.6 4.7
2016-Feb-06 09:00S 75°12' W 025°48'0 0.0 983.9 -8.4 6.0
2016-Feb-06 08:00S 75°12' W 025°48'0 0.0 983.4 -8.0 5.6
2016-Feb-06 07:00S 75°12' W 025°48'0 0.0 982.9 -9.3 7.3
2016-Feb-06 06:00S 75°12' W 025°48'0 0.0 982.6 -9.6 7.6
2016-Feb-06 05:00S 75°12' W 025°48'0 0.0 982.2 -8.3 5.9
2016-Feb-06 04:00S 75°12' W 025°48'0 0.0 981.9 -8.0 5.3
2016-Feb-06 03:00S 75°12' W 025°48'0 0.0 981.6 -8.4 6.0
2016-Feb-06 00:00S 75°12' W 025°48'0 0.0 981.5 -9.4 7.4
2016-Feb-05 22:00S 75°12' W 025°48'0 0.0 981.0 -7.3 4.8
2016-Feb-05 21:00S 75°12' W 025°48'0 0.0 981.0 -7.1 4.8
2016-Feb-05 20:00S 75°12' W 025°48'0 0.0 980.8 -5.7 3.1
2016-Feb-05 19:00S 75°12' W 025°48'0 0.0 980.7 -5.8 3.4
2016-Feb-05 18:00S 75°12' W 025°48'0 0.0 980.6 -6.5 4.1
2016-Feb-05 17:00S 75°12' W 025°48'0 0.0 980.8 -6.4 3.3
2016-Feb-05 09:00S 75°12' W 025°48'0 0.0 982.8 -8.9 5.6
2016-Feb-05 07:00S 75°12' W 025°48'0 0.0 983.1 -9.9 7.0
2016-Feb-05 03:00S 75°12' W 025°48'0 0.0 984.3 -9.7 6.5
2016-Feb-05 01:00S 75°12' W 025°48'0 0.0 985.3 -9.7 6.8
2016-Feb-05 00:00S 75°12' W 025°48'0 0.0 985.8 -9.4 6.3
2016-Feb-04 21:00S 75°12' W 025°48'   986.3 -8.9 6.0
Track history (hours):
 
Tides and Currents Weather Stations Pressure Air Temp Water Temp Dewpoint Dewpoint Depression Visibility Wind Speed Wind Dir Waves Ship Positions

Oceanographic research ship Ernest Shackleton (UK/Norway)

Detailed information on ship capabilities available from University of Delaware's Ocean Information Center and ARCUS's ALIAS (Arctic Logistics Information and Support) project.

Last reported at 2016-Feb-14 19:00 UTC. Time now 2016-Feb-14 21:02 UTC.
Position S 51°42' W 057°48'.

Length 80 m; beam 17 m; draft 7.4 m.

Type: Ship. MMSI: 740357000.

AWS

Barometer 991.2 mb
Air temperature 7.4 ° C
Dewpoint 1.4 ° C

Date/timePositionNaut miles runAvg speedWind from/ knotsBaromVisibWave heightAir tempDewpointWater temp
2016-Feb-14 19:00S 51°42' W 057°48'0 0.0 991.2 7.4 1.4
2016-Feb-14 18:00S 51°42' W 057°48'0 0.0 990.1 7.5 1.4
2016-Feb-14 16:00S 51°42' W 057°48'0 0.0 988.1 7.9 2.6
2016-Feb-14 15:00S 51°42' W 057°48'0 0.0 987.4 8.2 2.9
2016-Feb-14 14:00S 51°42' W 057°48'0 0.0 986.6 8.3 1.3
2016-Feb-14 13:00S 51°42' W 057°48'0 0.0 986.0 7.4 1.3
2016-Feb-14 12:00S 51°42' W 057°48'0 0.0 985.5 6.8 3.5
2016-Feb-14 10:00S 51°42' W 057°48'0 0.0 984.7 5.4 1.3
2016-Feb-14 09:00S 51°42' W 057°48'0 0.0 984.2 5.5 1.9
2016-Feb-14 06:00S 51°42' W 057°48'0 0.0 983.6 5.8 1.5
2016-Feb-14 05:00S 51°42' W 057°48'0 0.0 984.0 6.2 2.8
2016-Feb-14 03:00S 51°42' W 057°48'0 0.0 983.6 6.3 2.9
2016-Feb-14 01:00S 51°42' W 057°48'0 0.0 982.4 6.5 3.4
2016-Feb-14 00:00S 51°42' W 057°48'7 3.5 982.3 7.2 3.6
2016-Feb-13 22:00S 51°36' W 057°54'0 0.0 982.0 8.2 4.3
2016-Feb-13 21:00S 51°36' W 057°54'0 0.0 982.2 6.5 3.4
2016-Feb-13 19:00S 51°36' W 057°54'0 0.0 982.4 6.8 3.4
2016-Feb-13 18:00S 51°36' W 057°54'0 0.0 982.4 6.3 3.3
2016-Feb-13 17:00S 51°36' W 057°54'0 0.0 981.9 6.0 3.0
2016-Feb-13 16:00S 51°36' W 057°54'0 0.0 981.9 5.4 2.8
2016-Feb-13 15:00S 51°36' W 057°54'0 0.0 981.6 4.7 2.5
2016-Feb-13 14:00S 51°36' W 057°54'0 0.0 981.6 3.7 1.9
2016-Feb-13 13:00S 51°36' W 057°54'0 0.0 982.0 3.7 1.9
2016-Feb-13 12:00S 51°36' W 057°54'4 3.7 982.5 4.1 2.3
2016-Feb-13 11:00S 51°36' W 057°48'10 9.6 983.1 5.4 3.7
2016-Feb-13 10:00S 51°42' W 057°36'7 7.1 983.7 5.4 4.0
2016-Feb-13 09:00S 51°48' W 057°30'14 7.1 985.7 5.2 3.3
2016-Feb-13 07:00S 52°00' W 057°18'7 7.4 989.8 7.7 6.3
2016-Feb-13 06:00S 52°00' W 057°06'23 7.8 991.9 7.4 4.2
2016-Feb-13 03:00S 52°18' W 056°42'7 7.0 050 / 7994.310.8 1.0 7.8 5.7 7.1
2016-Feb-13 02:00S 52°24' W 056°36'13 6.3 994.9 7.9 5.9
2016-Feb-13 00:00S 52°30' W 056°18'16 8.1 995.3 7.4 6.2
2016-Feb-12 22:00S 52°42' W 056°00'9 9.4 995.9 7.4 5.2
2016-Feb-12 21:00S 52°48' W 055°48'4013.4 995.7 7.6 4.5
2016-Feb-12 18:00S 53°24' W 055°18'13212.0 994.7 6.4 3.5
2016-Feb-12 07:00S 55°18' W 053°24'9 9.1 981.7 4.4 2.4
2016-Feb-12 06:00S 55°24' W 053°12'1413.8 981.7 4.0 2.4
2016-Feb-12 05:00S 55°36' W 053°00'9 9.0 981.7 3.9 2.3
2016-Feb-12 04:00S 55°42' W 052°48'2120.6 981.7 3.7 2.5
2016-Feb-12 03:00S 56°00' W 052°30'22 7.5 270 / 14981.5 5.4 1.5 3.8 3.8 4.0
2016-Feb-12 00:00S 56°18' W 052°06'1413.7 982.4 3.0 2.4
2016-Feb-11 23:00S 56°30' W 051°54'2713.7 982.7 3.1 2.6
2016-Feb-11 21:00S 56°54' W 051°30'2010.2 982.4 3.2 2.6
2016-Feb-11 19:00S 57°12' W 051°12'1413.6 982.8 2.0 1.0
2016-Feb-11 18:00S 57°24' W 051°00'3913.1 984.0 2.0-0.4
2016-Feb-11 15:00S 58°00' W 050°30'3110.2 985.9 1.0-3.2
2016-Feb-11 12:00S 58°24' W 049°54'3 3.1 984.8 0.3-3.6
2016-Feb-11 11:00S 58°24' W 049°48'65 6.5 984.2 -0.1-3.3
2016-Feb-11 01:00S 59°12' W 048°24'4711.8 973.3 -0.2-1.6
2016-Feb-10 21:00S 59°48' W 047°24'35 8.7 970.4 -0.2-1.3
2016-Feb-10 17:00S 60°18' W 046°48'4314.3 969.8 -0.8-0.5
2016-Feb-10 14:00S 60°54' W 046°00'13113.1 968.8 -0.3-0.3
2016-Feb-10 04:00S 62°36' W 043°06'1514.6 970.5 -0.9 0.4
2016-Feb-10 03:00S 62°48' W 042°48'1010.2 971.8 -0.9 0.4
2016-Feb-10 02:00S 62°54' W 042°30'6913.8 973.4 -1.1 0.6
2016-Feb-09 21:00S 63°48' W 040°54'18 8.9 978.3 -1.0 0.3
2016-Feb-09 19:00S 64°00' W 040°24'1414.3 978.5 -0.8 0.2
2016-Feb-09 18:00S 64°12' W 040°06'10 9.9 978.6 -0.7 0.1
2016-Feb-09 17:00S 64°18' W 039°48'5112.7 978.5 -0.7 0.1
2016-Feb-09 13:00S 65°00' W 038°42'10 9.7 977.2 -0.7 0.1
2016-Feb-09 12:00S 65°06' W 038°24'2311.7 977.0 -0.6-0.0
2016-Feb-09 10:00S 65°24' W 037°48'1414.1 976.1 -0.8 0.2
2016-Feb-09 09:00S 65°36' W 037°30'10 9.5 975.8 -0.8 0.2
2016-Feb-09 08:00S 65°42' W 037°12'1414.1 975.8 -0.8 0.2
2016-Feb-09 07:00S 65°54' W 036°54'1111.5 976.0 -0.7 0.1
2016-Feb-09 06:00S 66°00' W 036°30'1414.0 976.7 -0.8 0.2
2016-Feb-09 05:00S 66°12' W 036°12'2311.5 978.0 -0.8 0.2
2016-Feb-09 03:00S 66°30' W 035°36'2512.3 980.5 -1.2 0.6
2016-Feb-09 01:00S 66°48' W 034°54'9 9.3 981.9 -1.9 1.2
2016-Feb-09 00:00S 66°54' W 034°36'1413.9 982.4 -1.9 1.1
2016-Feb-08 23:00S 67°06' W 034°18'1111.1 982.7 -1.6 0.6
2016-Feb-08 22:00S 67°12' W 033°54'1413.9 982.9 -1.6 0.8
2016-Feb-08 21:00S 67°24' W 033°36'5711.4 983.2 -1.6 0.9
2016-Feb-08 16:00S 68°06' W 031°54'1413.7 986.1 -2.1 0.3
2016-Feb-08 15:00S 68°18' W 031°36'1514.9 986.9 -2.4 0.2
2016-Feb-08 14:00S 68°30' W 031°12'2411.8 987.8 -2.5 0.3
2016-Feb-08 12:00S 68°48' W 030°30'2311.7 989.5 -2.6-2.3
2016-Feb-08 10:00S 69°06' W 029°48'1010.4 990.1 -2.8-2.0
2016-Feb-08 09:00S 69°12' W 029°24'2914.7 990.1 -2.9-1.1
2016-Feb-08 07:00S 69°36' W 028°36'1010.3 990.4 -2.8-1.0
2016-Feb-08 06:00S 69°42' W 028°12'3812.5 990.4 -3.2-1.1
2016-Feb-08 03:00S 70°12' W 027°06'1414.5 989.6 -4.4 0.6
2016-Feb-08 02:00S 70°24' W 026°42'1211.7 989.4 -4.8 1.9
2016-Feb-08 01:00S 70°30' W 026°12'1414.4 988.9 -5.0 2.4
2016-Feb-08 00:00S 70°42' W 025°48'2412.0 988.6 -4.8 2.3
2016-Feb-07 22:00S 71°00' W 025°00'1312.6 987.5 -3.2 0.3
2016-Feb-07 21:00S 71°12' W 025°12'10 9.8 987.5 -3.3 0.6
2016-Feb-07 20:00S 71°18' W 025°36'1312.6 987.5 -2.9-0.3
2016-Feb-07 19:00S 71°30' W 025°48'27 8.8 987.3 -3.1 0.4
2016-Feb-07 16:00S 71°54' W 026°24'6 6.0 986.9 -2.9-0.1
2016-Feb-07 15:00S 72°00' W 026°24'2 0.9 986.9 -2.2-1.3
2016-Feb-07 13:00S 72°00' W 026°30'6 6.3 986.9 -2.3-1.1
2016-Feb-07 12:00S 72°06' W 026°36'7 7.0 986.9 -2.6-0.9
2016-Feb-07 11:00S 72°12' W 026°48'12 6.1 987.0 -3.3-0.0
2016-Feb-07 09:00S 72°24' W 026°54'2412.0 986.7 -2.7-0.3
2016-Feb-07 07:00S 72°48' W 026°48'2 1.8 986.1 -2.8-1.0
2016-Feb-07 06:00S 72°48' W 026°42'18 9.0 985.9 -2.9-0.7
2016-Feb-07 04:00S 73°06' W 026°36'1212.0 985.9 -3.2-0.8
2016-Feb-07 03:00S 73°18' W 026°36'3010.0 986.1 -3.4-0.6
2016-Feb-07 00:00S 73°48' W 026°30'1212.5 986.3 -3.9 0.5
2016-Feb-06 23:00S 74°00' W 026°42'8 7.8 986.3 -3.8 0.3
2016-Feb-06 22:00S 74°06' W 027°00'8 7.8 986.2 -3.9 0.9
2016-Feb-06 21:00S 74°12' W 026°42'2010.2 986.3 -3.2-0.1
2016-Feb-06 19:00S 74°30' W 026°06'6 6.2 985.8 -4.4 1.3
2016-Feb-06 18:00S 74°36' W 026°00'1212.0 985.6 -4.5 2.1
2016-Feb-06 17:00S 74°48' W 026°00'1212.1 985.6 -4.2 2.0
2016-Feb-06 16:00S 75°00' W 025°54'6 6.2 985.7 -4.9 2.6
2016-Feb-06 15:00S 75°06' W 025°48'6 3.0 985.8 -5.0 2.9
2016-Feb-06 13:00S 75°12' W 025°48'0 0.0 985.6 -6.6 4.8
2016-Feb-06 12:00S 75°12' W 025°48'0 0.0 985.3 -6.6 4.7
2016-Feb-06 09:00S 75°12' W 025°48'0 0.0 983.9 -8.4 6.0
2016-Feb-06 08:00S 75°12' W 025°48'0 0.0 983.4 -8.0 5.6
2016-Feb-06 07:00S 75°12' W 025°48'0 0.0 982.9 -9.3 7.3
2016-Feb-06 06:00S 75°12' W 025°48'0 0.0 982.6 -9.6 7.6
2016-Feb-06 05:00S 75°12' W 025°48'0 0.0 982.2 -8.3 5.9
2016-Feb-06 04:00S 75°12' W 025°48'0 0.0 981.9 -8.0 5.3
2016-Feb-06 03:00S 75°12' W 025°48'0 0.0 981.6 -8.4 6.0
2016-Feb-06 00:00S 75°12' W 025°48'0 0.0 981.5 -9.4 7.4
2016-Feb-05 22:00S 75°12' W 025°48'0 0.0 981.0 -7.3 4.8
2016-Feb-05 21:00S 75°12' W 025°48'0 0.0 981.0 -7.1 4.8
2016-Feb-05 20:00S 75°12' W 025°48'0 0.0 980.8 -5.7 3.1
2016-Feb-05 19:00S 75°12' W 025°48'0 0.0 980.7 -5.8 3.4
2016-Feb-05 18:00S 75°12' W 025°48'0 0.0 980.6 -6.5 4.1
2016-Feb-05 17:00S 75°12' W 025°48'0 0.0 980.8 -6.4 3.3
2016-Feb-05 09:00S 75°12' W 025°48'0 0.0 982.8 -8.9 5.6
2016-Feb-05 07:00S 75°12' W 025°48'0 0.0 983.1 -9.9 7.0
2016-Feb-05 03:00S 75°12' W 025°48'0 0.0 984.3 -9.7 6.5
2016-Feb-05 01:00S 75°12' W 025°48'0 0.0 985.3 -9.7 6.8
2016-Feb-05 00:00S 75°12' W 025°48'0 0.0 985.8 -9.4 6.3
2016-Feb-04 21:00S 75°12' W 025°48'   986.3 -8.9 6.0

Dump ship's entire track history